Urania — PAFG — position and weather

sailwx.info

Track history (hours):
 
Tides and Currents Weather Stations Pressure Air Temp Water Temp Dewpoint Dewpoint Depression Visibility Wind Speed Wind Dir Waves Ship Positions

Urania (Netherlands)

Flagship of the Royal Netherlands Naval College.

Last reported at 2018-May-23 11:00 UTC. Time now 2018-May-23 11:12 UTC.
Position N 53°19' E 005°10'.

Length 27 m; draft 2.6 m.

Type: Sailing vessel. MMSI: 245804000.

Date/timePositionNaut miles runAvg speedWind from/ knotsBaromVisibWave heightAir tempDewpointWater temp
2018-May-23 11:00N 53°19' E 005°10'0 1.0
2018-May-23 10:30N 53°19' E 005°09'3 7.0
2018-May-23 10:00N 53°19' E 005°04'3 6.4
2018-May-23 09:30N 53°19' E 004°58'1 2.5
2018-May-23 09:01N 53°19' E 004°56'2 4.4
2018-May-23 08:31N 53°19' E 004°53'2 3.0
2018-May-23 08:00N 53°18' E 004°50'1 2.9
2018-May-23 07:30N 53°17' E 004°49'2 4.1
2018-May-23 07:00N 53°17' E 004°46'2 3.2
2018-May-23 06:30N 53°18' E 004°43'10 5.1
2018-May-23 04:33N 53°23' E 004°29'0 6.9
2018-May-23 04:30N 53°23' E 004°29'4 6.9
2018-May-23 03:55N 53°26' E 004°24'4 1.1
2018-May-23 00:21N 53°30' E 004°21'1 3.7
2018-May-23 00:01N 53°28' E 004°22'4 8.0
2018-May-22 23:31N 53°28' E 004°16'3 6.7
2018-May-22 23:00N 53°28' E 004°10'4 7.8
2018-May-22 22:30N 53°28' E 004°03'4 7.2
2018-May-22 22:00N 53°28' E 003°57'3 6.5
2018-May-22 21:30N 53°28' E 003°52'3 5.4
2018-May-22 21:00N 53°28' E 003°47'4 7.9
2018-May-22 20:30N 53°25' E 003°52'4 8.3
2018-May-22 20:01N 53°22' E 003°56'4 7.5
2018-May-22 19:30N 53°19' E 004°01'4 7.5
2018-May-22 19:00N 53°17' E 004°05'4 7.9
2018-May-22 18:31N 53°14' E 004°11'4 8.9
2018-May-22 18:00N 53°13' E 004°18'3 5.2
2018-May-22 17:30N 53°11' E 004°21'3 6.7
2018-May-22 17:00N 53°09' E 004°26'3 6.7
2018-May-22 16:30N 53°08' E 004°31'2 3.1
2018-May-22 16:00N 53°08' E 004°33'3 5.9
2018-May-22 15:30N 53°05' E 004°36'3 6.9
2018-May-22 15:00N 53°03' E 004°40'3 5.6
2018-May-22 14:31N 53°00' E 004°42'3 6.2
2018-May-22 14:01N 52°59' E 004°47'4 8.9
2018-May-22 13:31N 52°60' E 004°54'4 7.9
2018-May-22 13:00N 52°58' E 004°60'2 4.9
2018-May-22 12:30N 52°56' E 005°03'0 0.8
2018-May-22 12:00N 52°56' E 005°03'3 5.7
2018-May-22 11:30N 52°54' E 005°07'2 4.8
2018-May-22 11:01N 52°52' E 005°09'1 2.3
2018-May-22 10:31N 52°52' E 005°11'1 1.3
2018-May-22 10:01N 52°51' E 005°10'1 2.8
2018-May-22 09:30N 52°53' E 005°11'2 3.7
2018-May-22 09:00N 52°53' E 005°14'2 3.2
2018-May-22 08:31N 52°53' E 005°17'1 2.7
2018-May-22 08:01N 52°53' E 005°19'1 2.8
2018-May-22 07:31N 52°54' E 005°21'1 2.7
2018-May-22 07:00N 52°55' E 005°23'1 1.0
2018-May-22 06:30N 52°55' E 005°22'0 0.2
2018-May-22 05:58N 52°54' E 005°22'0 0.0
2018-May-22 05:25N 52°54' E 005°22'0 0.0
2018-May-22 04:58N 52°54' E 005°22'0 0.0
2018-May-22 04:28N 52°54' E 005°22'0 0.0
2018-May-22 03:58N 52°54' E 005°22'0 0.0
2018-May-22 03:28N 52°54' E 005°22'0 0.0
2018-May-22 02:58N 52°54' E 005°22'0 0.0
2018-May-22 02:25N 52°54' E 005°22'0 0.0
2018-May-22 01:58N 52°54' E 005°22'0 0.0
2018-May-22 01:28N 52°54' E 005°22'0 0.0
2018-May-22 00:58N 52°54' E 005°22'0 0.0
2018-May-22 00:28N 52°54' E 005°22'0 0.0
2018-May-21 23:55N 52°54' E 005°22'0 0.0
2018-May-21 23:28N 52°54' E 005°22'0 0.0
2018-May-21 22:58N 52°54' E 005°22'0 0.0
2018-May-21 22:28N 52°54' E 005°22'0 0.0
2018-May-21 21:58N 52°54' E 005°22'0 0.0
2018-May-21 21:28N 52°54' E 005°22'0 0.0
2018-May-21 20:58N 52°54' E 005°22'0 0.0
2018-May-21 20:28N 52°54' E 005°22'0 0.0
2018-May-21 19:58N 52°54' E 005°22'0 0.0
2018-May-21 19:28N 52°54' E 005°22'0 0.0
2018-May-21 18:55N 52°54' E 005°22'0 0.0
2018-May-21 18:25N 52°54' E 005°22'0 0.0
2018-May-21 17:58N 52°54' E 005°22'0 0.0
2018-May-21 17:28N 52°54' E 005°22'0 1.0
2018-May-21 17:00N 52°55' E 005°22'1 2.2
2018-May-21 16:30N 52°54' E 005°21'2 3.8
2018-May-21 16:00N 52°54' E 005°18'3 5.6
2018-May-21 15:30N 52°51' E 005°17'3 6.8
2018-May-21 15:00N 52°48' E 005°19'3 6.1
2018-May-21 14:30N 52°46' E 005°22'1 2.3
2018-May-21 14:01N 52°45' E 005°23'2 3.9
2018-May-21 13:30N 52°43' E 005°21'1 2.5
2018-May-21 13:00N 52°43' E 005°19'1 1.8
2018-May-21 12:28N 52°42' E 005°18'0 0.0
2018-May-21 11:58N 52°42' E 005°18'0 0.0
2018-May-21 11:28N 52°42' E 005°18'0 0.0
2018-May-21 10:58N 52°42' E 005°18'0 0.0
2018-May-21 10:28N 52°42' E 005°18'0 0.0
2018-May-21 09:58N 52°42' E 005°18'0 0.0
2018-May-21 09:28N 52°42' E 005°18'0 0.0
2018-May-21 08:58N 52°42' E 005°18'0 0.0
2018-May-21 08:28N 52°42' E 005°18'0 0.0
2018-May-21 07:58N 52°42' E 005°18'0 0.0
2018-May-21 07:28N 52°42' E 005°18'0 0.0
2018-May-21 06:58N 52°42' E 005°18'0 0.0
2018-May-21 06:28N 52°42' E 005°18'0 0.0
2018-May-21 05:58N 52°42' E 005°18'0 0.0
2018-May-21 05:28N 52°42' E 005°18'0 0.0
2018-May-21 04:58N 52°42' E 005°18'0 0.0
2018-May-21 04:28N 52°42' E 005°18'0 0.0
2018-May-21 03:58N 52°42' E 005°18'0 0.0
2018-May-21 03:28N 52°42' E 005°18'0 0.0
2018-May-21 02:58N 52°42' E 005°18'0 0.0
2018-May-21 02:28N 52°42' E 005°18'0 0.0
2018-May-21 01:58N 52°42' E 005°18'0 0.0
2018-May-21 01:28N 52°42' E 005°18'0 0.0
2018-May-21 00:58N 52°42' E 005°18'0 0.0
2018-May-21 00:28N 52°42' E 005°18'0 0.0
2018-May-20 23:58N 52°42' E 005°18'0 0.0
2018-May-20 23:28N 52°42' E 005°18'0 0.0
2018-May-20 22:58N 52°42' E 005°18'0 0.0
2018-May-20 22:28N 52°42' E 005°18'0 0.0
2018-May-20 21:58N 52°42' E 005°18'0 0.0
2018-May-20 21:28N 52°42' E 005°18'0 0.0
2018-May-20 20:58N 52°42' E 005°18'0 0.0
2018-May-20 20:28N 52°42' E 005°18'0 0.0
2018-May-20 19:58N 52°42' E 005°18'0 0.0
2018-May-20 19:28N 52°42' E 005°18'0 0.0
2018-May-20 18:58N 52°42' E 005°18'0 0.0
2018-May-20 18:28N 52°42' E 005°18'0 0.0
2018-May-20 17:58N 52°42' E 005°18'0 0.0
2018-May-20 17:28N 52°42' E 005°18'0 0.0
2018-May-20 16:58N 52°42' E 005°18'0 0.0
2018-May-20 16:28N 52°42' E 005°18'0 0.0
2018-May-20 15:58N 52°42' E 005°18'0 0.0
2018-May-20 15:28N 52°42' E 005°18'0 0.0
2018-May-20 14:58N 52°42' E 005°18'0 0.0
2018-May-20 14:28N 52°42' E 005°18'0 0.0
2018-May-20 14:01N 52°42' E 005°18'0 0.0
2018-May-20 13:31N 52°42' E 005°18'0 0.0
2018-May-20 13:01N 52°42' E 005°18'0 0.0
2018-May-20 12:30N 52°42' E 005°18'0 0.0
2018-May-20 12:00N 52°42' E 005°18'0 0.0
2018-May-20 11:30N 52°42' E 005°18'0 0.0
2018-May-20 11:00N 52°42' E 005°18'0 0.0
2018-May-20 10:30N 52°42' E 005°18'0 0.0
2018-May-20 10:00N 52°42' E 005°18'0 0.0
2018-May-20 09:30N 52°42' E 005°18'0 0.0
2018-May-20 09:00N 52°42' E 005°18'0 0.0
2018-May-20 08:30N 52°42' E 005°18'0 0.0
2018-May-20 08:00N 52°42' E 005°18'0 0.0
2018-May-20 07:30N 52°42' E 005°18'0 0.0
2018-May-20 07:00N 52°42' E 005°18'0 0.0
2018-May-20 06:30N 52°42' E 005°18'0 0.0
2018-May-20 06:00N 52°42' E 005°18'0 0.0
2018-May-20 05:30N 52°42' E 005°18'0 0.0
2018-May-20 05:00N 52°42' E 005°18'0 0.0
2018-May-20 04:30N 52°42' E 005°18'0 0.0
2018-May-20 04:00N 52°42' E 005°18'0 0.0
2018-May-20 03:30N 52°42' E 005°18'0 0.0
2018-May-20 03:00N 52°42' E 005°18'0 0.0
2018-May-20 02:30N 52°42' E 005°18'0 0.0
2018-May-20 02:00N 52°42' E 005°18'0 0.0
2018-May-20 01:30N 52°42' E 005°18'0 0.0
2018-May-20 01:00N 52°42' E 005°18'0 0.0
2018-May-20 00:30N 52°42' E 005°18'0 0.0
2018-May-20 00:00N 52°42' E 005°18'0 0.0
2018-May-19 23:30N 52°42' E 005°18'0 0.0
2018-May-19 23:00N 52°42' E 005°18'0 0.0
2018-May-19 22:30N 52°42' E 005°18'0 0.0
2018-May-19 22:00N 52°42' E 005°18'0 0.0
2018-May-19 21:30N 52°42' E 005°18'0 0.0
2018-May-19 21:00N 52°42' E 005°18'0 0.0
2018-May-19 20:30N 52°42' E 005°18'0 0.0
2018-May-19 20:00N 52°42' E 005°18'0 0.0
2018-May-19 19:30N 52°42' E 005°18'0 0.0
2018-May-19 19:00N 52°42' E 005°18'0 0.0
2018-May-19 18:30N 52°42' E 005°18'0 0.0
2018-May-19 18:00N 52°42' E 005°18'0 0.0
2018-May-19 17:30N 52°42' E 005°18'0 0.0
2018-May-19 17:00N 52°42' E 005°18'0 0.0
2018-May-19 16:30N 52°42' E 005°18'0 0.0
2018-May-19 16:00N 52°42' E 005°18'0 0.0
2018-May-19 15:30N 52°42' E 005°18'0 0.0
2018-May-19 15:00N 52°42' E 005°18'0 0.0
2018-May-19 14:30N 52°42' E 005°18'0 0.0
2018-May-19 14:00N 52°42' E 005°18'0 0.0
2018-May-19 13:30N 52°42' E 005°18'0 0.0
2018-May-19 13:00N 52°42' E 005°18'0 0.0
2018-May-19 12:30N 52°42' E 005°18'0 0.0
2018-May-19 12:00N 52°42' E 005°18'0 0.0
2018-May-19 11:30N 52°42' E 005°18'0 0.0
2018-May-19 11:00N 52°42' E 005°18'0 0.0
2018-May-19 10:30N 52°42' E 005°18'0 0.0
2018-May-19 10:00N 52°42' E 005°18'0 0.0
2018-May-19 09:30N 52°42' E 005°18'0 0.0
2018-May-19 09:00N 52°42' E 005°18'0 0.0
2018-May-19 08:30N 52°42' E 005°18'0 0.0
2018-May-19 08:00N 52°42' E 005°18'0 0.0
2018-May-19 07:30N 52°42' E 005°18'0 0.0
2018-May-19 07:00N 52°42' E 005°18'0 0.0
2018-May-19 06:30N 52°42' E 005°18'0 0.0
2018-May-19 06:00N 52°42' E 005°18'0 0.0
2018-May-19 05:30N 52°42' E 005°18'0 0.0
2018-May-19 05:00N 52°42' E 005°18'0 0.0
2018-May-19 04:30N 52°42' E 005°18'0 0.0
2018-May-19 04:00N 52°42' E 005°18'0 0.0
2018-May-19 03:30N 52°42' E 005°18'0 0.0
2018-May-19 03:00N 52°42' E 005°18'0 0.0
2018-May-19 02:30N 52°42' E 005°18'0 0.0
2018-May-19 02:00N 52°42' E 005°18'0 0.0
2018-May-19 01:30N 52°42' E 005°18'0 0.0
2018-May-19 01:00N 52°42' E 005°18'0 0.0
2018-May-19 00:30N 52°42' E 005°18'0 0.0
2018-May-19 00:00N 52°42' E 005°18'0 0.0
2018-May-18 23:30N 52°42' E 005°18'0 0.0
2018-May-18 23:00N 52°42' E 005°18'0 0.0
2018-May-18 22:30N 52°42' E 005°18'0 0.0
2018-May-18 22:00N 52°42' E 005°18'0 0.0
2018-May-18 21:29N 52°42' E 005°18'0 0.0
2018-May-18 20:59N 52°42' E 005°18'0 0.0
2018-May-18 20:29N 52°42' E 005°18'0 0.0
2018-May-18 19:59N 52°42' E 005°18'0 0.0
2018-May-18 19:29N 52°42' E 005°18'0 0.0
2018-May-18 18:59N 52°42' E 005°18'0 0.0
2018-May-18 18:29N 52°42' E 005°18'0 0.0
2018-May-18 17:59N 52°42' E 005°18'0 0.0
2018-May-18 17:29N 52°42' E 005°18'0 0.0
2018-May-18 16:59N 52°42' E 005°18'0 0.0
2018-May-18 16:29N 52°42' E 005°18'0 0.0
2018-May-18 15:59N 52°42' E 005°18'0 0.0
2018-May-18 15:29N 52°42' E 005°18'0 0.0
2018-May-18 14:59N 52°42' E 005°18'0 0.0
2018-May-18 14:29N 52°42' E 005°18'0 0.0
2018-May-18 13:59N 52°42' E 005°18'0 0.0
2018-May-18 13:29N 52°42' E 005°18'0 0.0
2018-May-18 12:59N 52°42' E 005°18'0 0.0
2018-May-18 12:29N 52°42' E 005°18'0 0.0
2018-May-18 11:59N 52°42' E 005°18'0 0.0
2018-May-18 11:29N 52°42' E 005°18'0 0.0
2018-May-18 10:59N 52°42' E 005°18'0 0.0
2018-May-18 10:29N 52°42' E 005°18'0 0.0
2018-May-18 09:59N 52°42' E 005°18'0 0.0
2018-May-18 09:29N 52°42' E 005°18'0 0.0
2018-May-18 08:59N 52°42' E 005°18'0 0.0
2018-May-18 08:29N 52°42' E 005°18'0 0.0
2018-May-18 07:59N 52°42' E 005°18'0 0.0
2018-May-18 07:29N 52°42' E 005°18'0 0.0
2018-May-18 06:59N 52°42' E 005°18'0 0.0
2018-May-18 06:29N 52°42' E 005°18'0 0.0
2018-May-18 05:59N 52°42' E 005°18'0 0.0
2018-May-18 05:29N 52°42' E 005°18'0 0.0
2018-May-18 04:59N 52°42' E 005°18'0 0.0
2018-May-18 04:29N 52°42' E 005°18'0 0.0
2018-May-18 03:59N 52°42' E 005°18'0 0.0
2018-May-18 03:29N 52°42' E 005°18'0 0.0
2018-May-18 02:59N 52°42' E 005°18'0 0.0
2018-May-18 02:29N 52°42' E 005°18'0 0.0
2018-May-18 01:59N 52°42' E 005°18'0 0.0
2018-May-18 01:29N 52°42' E 005°18'0 0.0
2018-May-18 00:59N 52°42' E 005°18'0 0.0
2018-May-18 00:29N 52°42' E 005°18'0 0.0
2018-May-17 23:59N 52°42' E 005°18'0 0.0
2018-May-17 23:29N 52°42' E 005°18'0 0.0
2018-May-17 22:59N 52°42' E 005°18'0 0.0
2018-May-17 22:29N 52°42' E 005°18'0 0.0
2018-May-17 21:59N 52°42' E 005°18'0 0.0
2018-May-17 21:29N 52°42' E 005°18'0 0.0
2018-May-17 20:59N 52°42' E 005°18'0 0.0
2018-May-17 20:29N 52°42' E 005°18'0 0.0
2018-May-17 19:59N 52°42' E 005°18'0 0.0
2018-May-17 19:29N 52°42' E 005°18'0 0.0
2018-May-17 18:59N 52°42' E 005°18'0 0.0
2018-May-17 18:29N 52°42' E 005°18'0 0.0
2018-May-17 17:59N 52°42' E 005°18'0 0.0
2018-May-17 17:29N 52°42' E 005°18'0 0.0
2018-May-17 16:59N 52°42' E 005°18'0 0.0
2018-May-17 16:29N 52°42' E 005°18'0 0.0
2018-May-17 15:59N 52°42' E 005°18'0 0.0
2018-May-17 15:29N 52°42' E 005°18'0 0.0
2018-May-17 14:59N 52°42' E 005°18'0 0.0
2018-May-17 14:29N 52°42' E 005°18'0 0.0
2018-May-17 13:59N 52°42' E 005°18'0 0.0
2018-May-17 13:29N 52°42' E 005°18'0 0.0
2018-May-17 12:59N 52°42' E 005°18'0 0.0
2018-May-17 12:30N 52°42' E 005°18'2 3.1
2018-May-17 12:00N 52°43' E 005°19'2 4.3
2018-May-17 11:30N 52°45' E 005°21'2 3.0
2018-May-17 11:01N 52°46' E 005°20'4 7.8
2018-May-17 10:30N 52°46' E 005°14'2 4.2
2018-May-17 10:00N 52°46' E 005°17'4 7.6
2018-May-17 09:30N 52°47' E 005°23'1 2.7
2018-May-17 09:00N 52°45' E 005°24'4 7.3
2018-May-17 08:30N 52°43' E 005°19'1 2.6
2018-May-17 07:59N 52°42' E 005°18'0 0.0
2018-May-17 07:29N 52°42' E 005°18'0 0.0
2018-May-17 06:59N 52°42' E 005°18'0 0.0
2018-May-17 06:29N 52°42' E 005°18'0 0.0
2018-May-17 05:59N 52°42' E 005°18'0 0.0
2018-May-17 05:29N 52°42' E 005°18'0 0.0
2018-May-17 04:59N 52°42' E 005°18'0 0.0
2018-May-17 04:29N 52°42' E 005°18'0 0.0
2018-May-17 03:59N 52°42' E 005°18'0 0.0
2018-May-17 03:29N 52°42' E 005°18'0 0.0
2018-May-17 02:59N 52°42' E 005°18'0 0.0
2018-May-17 02:29N 52°42' E 005°18'0 0.0
2018-May-17 01:59N 52°42' E 005°18'0 0.0
2018-May-17 01:29N 52°42' E 005°18'0 0.0
2018-May-17 00:59N 52°42' E 005°18'0 0.0
2018-May-17 00:29N 52°42' E 005°18'0 0.0
2018-May-16 23:59N 52°42' E 005°18'0 0.0
2018-May-16 23:29N 52°42' E 005°18'0 0.0
2018-May-16 22:59N 52°42' E 005°18'0 0.0
2018-May-16 22:29N 52°42' E 005°18'0 0.0
2018-May-16 21:59N 52°42' E 005°18'0 0.0
2018-May-16 21:29N 52°42' E 005°18'0 0.0
2018-May-16 20:59N 52°42' E 005°18'0 0.0
2018-May-16 20:29N 52°42' E 005°18'0 0.0
2018-May-16 19:59N 52°42' E 005°18'0 0.0
2018-May-16 19:29N 52°42' E 005°18'0 0.0
2018-May-16 18:58N 52°42' E 005°18'0 0.0
2018-May-16 18:28N 52°42' E 005°18'0 0.0
2018-May-16 17:58N 52°42' E 005°18'0 0.0
2018-May-16 17:28N 52°42' E 005°18'0 0.0
2018-May-16 16:58N 52°42' E 005°18'0 0.0
2018-May-16 16:28N 52°42' E 005°18'0 0.0
2018-May-16 15:58N 52°42' E 005°18'0 0.0
2018-May-16 15:28N 52°42' E 005°18'0 0.0
2018-May-16 14:58N 52°42' E 005°18'0 0.0
2018-May-16 14:28N 52°42' E 005°18'0 0.0
2018-May-16 13:58N 52°42' E 005°18'0 0.0
2018-May-16 13:28N 52°42' E 005°18'0 0.0
2018-May-16 12:58N 52°42' E 005°18'0 0.0
2018-May-16 12:28N 52°42' E 005°18'0 0.0
2018-May-16 11:58N 52°42' E 005°18'0 0.0
2018-May-16 11:28N 52°42' E 005°18'0 0.0
2018-May-16 10:58N 52°42' E 005°18'0 0.0
2018-May-16 10:28N 52°42' E 005°18'0 0.0
2018-May-16 09:58N 52°42' E 005°18'0 0.0
2018-May-16 09:28N 52°42' E 005°18'0 0.0
2018-May-16 08:58N 52°42' E 005°18'0 0.0
2018-May-16 08:28N 52°42' E 005°18'0 0.0
2018-May-16 07:58N 52°42' E 005°18'0 0.0
2018-May-16 07:28N 52°42' E 005°18'0 0.0
2018-May-16 06:58N 52°42' E 005°18'0 0.0
2018-May-16 06:28N 52°42' E 005°18'0 0.0
2018-May-16 05:58N 52°42' E 005°18'0 0.0
2018-May-16 05:28N 52°42' E 005°18'0 0.0
2018-May-16 04:58N 52°42' E 005°18'0 0.0
2018-May-16 04:28N 52°42' E 005°18'0 0.0
2018-May-16 03:58N 52°42' E 005°18'0 0.0
2018-May-16 03:28N 52°42' E 005°18'0 0.0
2018-May-16 02:58N 52°42' E 005°18'0 0.0
2018-May-16 02:28N 52°42' E 005°18'0 0.0
2018-May-16 01:58N 52°42' E 005°18'0 0.0
2018-May-16 01:28N 52°42' E 005°18'0 0.0
2018-May-16 00:58N 52°42' E 005°18'0 0.0
2018-May-16 00:28N 52°42' E 005°18'0 0.0
2018-May-15 23:58N 52°42' E 005°18'0 0.0
2018-May-15 23:28N 52°42' E 005°18'0 0.0
2018-May-15 22:58N 52°42' E 005°18'0 0.0
2018-May-15 22:28N 52°42' E 005°18'0 0.0
2018-May-15 21:58N 52°42' E 005°18'0 0.0
2018-May-15 21:28N 52°42' E 005°18'0 0.0
2018-May-15 20:58N 52°42' E 005°18'0 0.0
2018-May-15 20:28N 52°42' E 005°18'0 0.0
2018-May-15 19:58N 52°42' E 005°18'0 0.0
2018-May-15 19:28N 52°42' E 005°18'0 0.0
2018-May-15 18:58N 52°42' E 005°18'0 0.0
2018-May-15 18:28N 52°42' E 005°18'0 0.0
2018-May-15 17:58N 52°42' E 005°18'0 0.0
2018-May-15 17:28N 52°42' E 005°18'0 0.0
2018-May-15 16:58N 52°42' E 005°18'0 0.0
2018-May-15 16:28N 52°42' E 005°18'0 0.0
2018-May-15 15:58N 52°42' E 005°18'0 0.0
2018-May-15 15:28N 52°42' E 005°18'0 0.0
2018-May-15 14:58N 52°42' E 005°18'0 0.0
2018-May-15 14:28N 52°42' E 005°18'1 2.4
2018-May-15 14:01N 52°43' E 005°19'2 4.9
2018-May-15 13:30N 52°45' E 005°18'2 4.8
2018-May-15 13:00N 52°47' E 005°16'2 4.3
2018-May-15 12:30N 52°49' E 005°14'2 4.5
2018-May-15 12:00N 52°51' E 005°13'2 4.4
2018-May-15 11:30N 52°53' E 005°10'2 4.5
2018-May-15 11:00N 52°51' E 005°13'3 6.4
2018-May-15 10:30N 52°50' E 005°18'2 4.3
2018-May-15 10:00N 52°48' E 005°15'2 3.6
2018-May-15 09:31N 52°48' E 005°18'2 4.2
2018-May-15 09:00N 52°46' E 005°20'2 4.4
2018-May-15 08:30N 52°44' E 005°20'2 3.4
2018-May-15 08:00N 52°42' E 005°19'1 1.5
2018-May-15 07:29N 52°42' E 005°18'0 0.0
2018-May-15 06:59N 52°42' E 005°18'0 0.0
2018-May-15 06:29N 52°42' E 005°18'0 0.0
2018-May-15 05:59N 52°42' E 005°18'0 0.0
2018-May-15 05:29N 52°42' E 005°18'0 0.0
2018-May-15 04:59N 52°42' E 005°18'0 0.0
2018-May-15 04:29N 52°42' E 005°18'0 0.0
2018-May-15 03:59N 52°42' E 005°18'0 0.0
2018-May-15 03:29N 52°42' E 005°18'0 0.0
2018-May-15 02:59N 52°42' E 005°18'0 0.0
2018-May-15 02:29N 52°42' E 005°18'0 0.0
2018-May-15 01:59N 52°42' E 005°18'0 0.0
2018-May-15 01:29N 52°42' E 005°18'0 0.0
2018-May-15 00:59N 52°42' E 005°18'0 0.0
2018-May-15 00:29N 52°42' E 005°18'0 0.0
2018-May-14 23:59N 52°42' E 005°18'0 0.0
2018-May-14 23:29N 52°42' E 005°18'0 0.0
2018-May-14 22:59N 52°42' E 005°18'0 0.0
2018-May-14 22:29N 52°42' E 005°18'0 0.0
2018-May-14 21:59N 52°42' E 005°18'0 0.0
2018-May-14 21:29N 52°42' E 005°18'0 0.0
2018-May-14 20:59N 52°42' E 005°18'0 0.0
2018-May-14 20:29N 52°42' E 005°18'0 0.0
2018-May-14 19:59N 52°42' E 005°18'0 0.0
2018-May-14 19:29N 52°42' E 005°18'0 0.0
2018-May-14 18:59N 52°42' E 005°18'0 0.0
2018-May-14 18:29N 52°42' E 005°18'0 0.0
2018-May-14 17:59N 52°42' E 005°18'0 0.0
2018-May-14 17:29N 52°42' E 005°18'0 0.0
2018-May-14 16:59N 52°42' E 005°18'0 0.0
2018-May-14 16:29N 52°42' E 005°18'0 0.0
2018-May-14 15:59N 52°42' E 005°18'0 0.0
2018-May-14 15:29N 52°42' E 005°18'0 0.0
2018-May-14 14:59N 52°42' E 005°18'0 0.0
2018-May-14 14:29N 52°42' E 005°18'0 0.0
2018-May-14 13:59N 52°42' E 005°18'2 3.2
2018-May-14 13:30N 52°43' E 005°19'1 2.2
2018-May-14 13:00N 52°44' E 005°19'2 4.4
2018-May-14 12:30N 52°46' E 005°18'2 4.5
2018-May-14 12:01N 52°48' E 005°16'3 6.1
2018-May-14 11:30N 52°51' E 005°13'2 4.6
2018-May-14 11:00N 52°50' E 005°09'4 7.1
2018-May-14 10:31N 52°48' E 005°15'3 6.1
2018-May-14 10:00N 52°47' E 005°19'3 5.8
2018-May-14 09:30N 52°46' E 005°23'1 2.9
2018-May-14 09:00N 52°45' E 005°22'2 4.1
2018-May-14 08:30N 52°44' E 005°19'1 2.4
2018-May-14 08:00N 52°42' E 005°19'1 1.7
2018-May-14 07:30N 52°42' E 005°18'0 0.0
2018-May-14 07:00N 52°42' E 005°18'0 0.0
2018-May-14 06:30N 52°42' E 005°18'0 0.0
2018-May-14 06:00N 52°42' E 005°18'0 0.0
2018-May-14 05:30N 52°42' E 005°18'0 0.0
2018-May-14 04:59N 52°42' E 005°18'0 0.0
2018-May-14 04:29N 52°42' E 005°18'0 0.0
2018-May-14 03:59N 52°42' E 005°18'0 0.0
2018-May-14 03:29N 52°42' E 005°18'0 0.0
2018-May-14 02:59N 52°42' E 005°18'0 0.0
2018-May-14 02:29N 52°42' E 005°18'0 0.0
2018-May-14 01:59N 52°42' E 005°18'0 0.0
2018-May-14 01:29N 52°42' E 005°18'0 0.0
2018-May-14 00:59N 52°42' E 005°18'0 0.0
2018-May-14 00:29N 52°42' E 005°18'0 0.0
2018-May-13 23:59N 52°42' E 005°18'0 0.0
2018-May-13 23:29N 52°42' E 005°18'0 0.0
2018-May-13 22:59N 52°42' E 005°18'0 0.0
2018-May-13 22:29N 52°42' E 005°18'0 0.0
2018-May-13 21:59N 52°42' E 005°18'0 0.0
2018-May-13 21:29N 52°42' E 005°18'0 0.0
2018-May-13 20:59N 52°42' E 005°18'0 0.0
2018-May-13 20:29N 52°42' E 005°18'0 0.0
2018-May-13 19:59N 52°42' E 005°18'0 0.0
2018-May-13 19:29N 52°42' E 005°18'0 0.0
2018-May-13 18:59N 52°42' E 005°18'0 0.0
2018-May-13 18:29N 52°42' E 005°18'0 0.0
2018-May-13 17:59N 52°42' E 005°18'0 0.0
2018-May-13 17:29N 52°42' E 005°18'0 0.0
2018-May-13 16:59N 52°42' E 005°18'0 0.0
2018-May-13 16:29N 52°42' E 005°18'0 0.0
2018-May-13 15:59N 52°42' E 005°18'0 0.0
2018-May-13 15:29N 52°42' E 005°18'0 0.0
2018-May-13 14:59N 52°42' E 005°18'0 0.0
2018-May-13 14:29N 52°42' E 005°18'0 0.0
2018-May-13 13:59N 52°42' E 005°18'0 0.0
2018-May-13 13:29N 52°42' E 005°18'0 0.0
2018-May-13 12:59N 52°42' E 005°18'0 0.0
2018-May-13 12:29N 52°42' E 005°18'0 0.0
2018-May-13 11:59N 52°42' E 005°18'0 0.0
2018-May-13 11:29N 52°42' E 005°18'  
Track history (hours):
 
Tides and Currents Weather Stations Pressure Air Temp Water Temp Dewpoint Dewpoint Depression Visibility Wind Speed Wind Dir Waves Ship Positions

Urania (Netherlands)

Flagship of the Royal Netherlands Naval College.

Last reported at 2018-May-23 11:00 UTC. Time now 2018-May-23 11:12 UTC.
Position N 53°19' E 005°10'.

Length 27 m; draft 2.6 m.

Type: Sailing vessel. MMSI: 245804000.

Date/timePositionNaut miles runAvg speedWind from/ knotsBaromVisibWave heightAir tempDewpointWater temp
2018-May-23 11:00N 53°19' E 005°10'0 1.0
2018-May-23 10:30N 53°19' E 005°09'3 7.0
2018-May-23 10:00N 53°19' E 005°04'3 6.4
2018-May-23 09:30N 53°19' E 004°58'1 2.5
2018-May-23 09:01N 53°19' E 004°56'2 4.4
2018-May-23 08:31N 53°19' E 004°53'2 3.0
2018-May-23 08:00N 53°18' E 004°50'1 2.9
2018-May-23 07:30N 53°17' E 004°49'2 4.1
2018-May-23 07:00N 53°17' E 004°46'2 3.2
2018-May-23 06:30N 53°18' E 004°43'10 5.1
2018-May-23 04:33N 53°23' E 004°29'0 6.9
2018-May-23 04:30N 53°23' E 004°29'4 6.9
2018-May-23 03:55N 53°26' E 004°24'4 1.1
2018-May-23 00:21N 53°30' E 004°21'1 3.7
2018-May-23 00:01N 53°28' E 004°22'4 8.0
2018-May-22 23:31N 53°28' E 004°16'3 6.7
2018-May-22 23:00N 53°28' E 004°10'4 7.8
2018-May-22 22:30N 53°28' E 004°03'4 7.2
2018-May-22 22:00N 53°28' E 003°57'3 6.5
2018-May-22 21:30N 53°28' E 003°52'3 5.4
2018-May-22 21:00N 53°28' E 003°47'4 7.9
2018-May-22 20:30N 53°25' E 003°52'4 8.3
2018-May-22 20:01N 53°22' E 003°56'4 7.5
2018-May-22 19:30N 53°19' E 004°01'4 7.5
2018-May-22 19:00N 53°17' E 004°05'4 7.9
2018-May-22 18:31N 53°14' E 004°11'4 8.9
2018-May-22 18:00N 53°13' E 004°18'3 5.2
2018-May-22 17:30N 53°11' E 004°21'3 6.7
2018-May-22 17:00N 53°09' E 004°26'3 6.7
2018-May-22 16:30N 53°08' E 004°31'2 3.1
2018-May-22 16:00N 53°08' E 004°33'3 5.9
2018-May-22 15:30N 53°05' E 004°36'3 6.9
2018-May-22 15:00N 53°03' E 004°40'3 5.6
2018-May-22 14:31N 53°00' E 004°42'3 6.2
2018-May-22 14:01N 52°59' E 004°47'4 8.9
2018-May-22 13:31N 52°60' E 004°54'4 7.9
2018-May-22 13:00N 52°58' E 004°60'2 4.9
2018-May-22 12:30N 52°56' E 005°03'0 0.8
2018-May-22 12:00N 52°56' E 005°03'3 5.7
2018-May-22 11:30N 52°54' E 005°07'2 4.8
2018-May-22 11:01N 52°52' E 005°09'1 2.3
2018-May-22 10:31N 52°52' E 005°11'1 1.3
2018-May-22 10:01N 52°51' E 005°10'1 2.8
2018-May-22 09:30N 52°53' E 005°11'2 3.7
2018-May-22 09:00N 52°53' E 005°14'2 3.2
2018-May-22 08:31N 52°53' E 005°17'1 2.7
2018-May-22 08:01N 52°53' E 005°19'1 2.8
2018-May-22 07:31N 52°54' E 005°21'1 2.7
2018-May-22 07:00N 52°55' E 005°23'1 1.0
2018-May-22 06:30N 52°55' E 005°22'0 0.2
2018-May-22 05:58N 52°54' E 005°22'0 0.0
2018-May-22 05:25N 52°54' E 005°22'0 0.0
2018-May-22 04:58N 52°54' E 005°22'0 0.0
2018-May-22 04:28N 52°54' E 005°22'0 0.0
2018-May-22 03:58N 52°54' E 005°22'0 0.0
2018-May-22 03:28N 52°54' E 005°22'0 0.0
2018-May-22 02:58N 52°54' E 005°22'0 0.0
2018-May-22 02:25N 52°54' E 005°22'0 0.0
2018-May-22 01:58N 52°54' E 005°22'0 0.0
2018-May-22 01:28N 52°54' E 005°22'0 0.0
2018-May-22 00:58N 52°54' E 005°22'0 0.0
2018-May-22 00:28N 52°54' E 005°22'0 0.0
2018-May-21 23:55N 52°54' E 005°22'0 0.0
2018-May-21 23:28N 52°54' E 005°22'0 0.0
2018-May-21 22:58N 52°54' E 005°22'0 0.0
2018-May-21 22:28N 52°54' E 005°22'0 0.0
2018-May-21 21:58N 52°54' E 005°22'0 0.0
2018-May-21 21:28N 52°54' E 005°22'0 0.0
2018-May-21 20:58N 52°54' E 005°22'0 0.0
2018-May-21 20:28N 52°54' E 005°22'0 0.0
2018-May-21 19:58N 52°54' E 005°22'0 0.0
2018-May-21 19:28N 52°54' E 005°22'0 0.0
2018-May-21 18:55N 52°54' E 005°22'0 0.0
2018-May-21 18:25N 52°54' E 005°22'0 0.0
2018-May-21 17:58N 52°54' E 005°22'0 0.0
2018-May-21 17:28N 52°54' E 005°22'0 1.0
2018-May-21 17:00N 52°55' E 005°22'1 2.2
2018-May-21 16:30N 52°54' E 005°21'2 3.8
2018-May-21 16:00N 52°54' E 005°18'3 5.6
2018-May-21 15:30N 52°51' E 005°17'3 6.8
2018-May-21 15:00N 52°48' E 005°19'3 6.1
2018-May-21 14:30N 52°46' E 005°22'1 2.3
2018-May-21 14:01N 52°45' E 005°23'2 3.9
2018-May-21 13:30N 52°43' E 005°21'1 2.5
2018-May-21 13:00N 52°43' E 005°19'1 1.8
2018-May-21 12:28N 52°42' E 005°18'0 0.0
2018-May-21 11:58N 52°42' E 005°18'0 0.0
2018-May-21 11:28N 52°42' E 005°18'0 0.0
2018-May-21 10:58N 52°42' E 005°18'0 0.0
2018-May-21 10:28N 52°42' E 005°18'0 0.0
2018-May-21 09:58N 52°42' E 005°18'0 0.0
2018-May-21 09:28N 52°42' E 005°18'0 0.0
2018-May-21 08:58N 52°42' E 005°18'0 0.0
2018-May-21 08:28N 52°42' E 005°18'0 0.0
2018-May-21 07:58N 52°42' E 005°18'0 0.0
2018-May-21 07:28N 52°42' E 005°18'0 0.0
2018-May-21 06:58N 52°42' E 005°18'0 0.0
2018-May-21 06:28N 52°42' E 005°18'0 0.0
2018-May-21 05:58N 52°42' E 005°18'0 0.0
2018-May-21 05:28N 52°42' E 005°18'0 0.0
2018-May-21 04:58N 52°42' E 005°18'0 0.0
2018-May-21 04:28N 52°42' E 005°18'0 0.0
2018-May-21 03:58N 52°42' E 005°18'0 0.0
2018-May-21 03:28N 52°42' E 005°18'0 0.0
2018-May-21 02:58N 52°42' E 005°18'0 0.0
2018-May-21 02:28N 52°42' E 005°18'0 0.0
2018-May-21 01:58N 52°42' E 005°18'0 0.0
2018-May-21 01:28N 52°42' E 005°18'0 0.0
2018-May-21 00:58N 52°42' E 005°18'0 0.0
2018-May-21 00:28N 52°42' E 005°18'0 0.0
2018-May-20 23:58N 52°42' E 005°18'0 0.0
2018-May-20 23:28N 52°42' E 005°18'0 0.0
2018-May-20 22:58N 52°42' E 005°18'0 0.0
2018-May-20 22:28N 52°42' E 005°18'0 0.0
2018-May-20 21:58N 52°42' E 005°18'0 0.0
2018-May-20 21:28N 52°42' E 005°18'0 0.0
2018-May-20 20:58N 52°42' E 005°18'0 0.0
2018-May-20 20:28N 52°42' E 005°18'0 0.0
2018-May-20 19:58N 52°42' E 005°18'0 0.0
2018-May-20 19:28N 52°42' E 005°18'0 0.0
2018-May-20 18:58N 52°42' E 005°18'0 0.0
2018-May-20 18:28N 52°42' E 005°18'0 0.0
2018-May-20 17:58N 52°42' E 005°18'0 0.0
2018-May-20 17:28N 52°42' E 005°18'0 0.0
2018-May-20 16:58N 52°42' E 005°18'0 0.0
2018-May-20 16:28N 52°42' E 005°18'0 0.0
2018-May-20 15:58N 52°42' E 005°18'0 0.0
2018-May-20 15:28N 52°42' E 005°18'0 0.0
2018-May-20 14:58N 52°42' E 005°18'0 0.0
2018-May-20 14:28N 52°42' E 005°18'0 0.0
2018-May-20 14:01N 52°42' E 005°18'0 0.0
2018-May-20 13:31N 52°42' E 005°18'0 0.0
2018-May-20 13:01N 52°42' E 005°18'0 0.0
2018-May-20 12:30N 52°42' E 005°18'0 0.0
2018-May-20 12:00N 52°42' E 005°18'0 0.0
2018-May-20 11:30N 52°42' E 005°18'0 0.0
2018-May-20 11:00N 52°42' E 005°18'0 0.0
2018-May-20 10:30N 52°42' E 005°18'0 0.0
2018-May-20 10:00N 52°42' E 005°18'0 0.0
2018-May-20 09:30N 52°42' E 005°18'0 0.0
2018-May-20 09:00N 52°42' E 005°18'0 0.0
2018-May-20 08:30N 52°42' E 005°18'0 0.0
2018-May-20 08:00N 52°42' E 005°18'0 0.0
2018-May-20 07:30N 52°42' E 005°18'0 0.0
2018-May-20 07:00N 52°42' E 005°18'0 0.0
2018-May-20 06:30N 52°42' E 005°18'0 0.0
2018-May-20 06:00N 52°42' E 005°18'0 0.0
2018-May-20 05:30N 52°42' E 005°18'0 0.0
2018-May-20 05:00N 52°42' E 005°18'0 0.0
2018-May-20 04:30N 52°42' E 005°18'0 0.0
2018-May-20 04:00N 52°42' E 005°18'0 0.0
2018-May-20 03:30N 52°42' E 005°18'0 0.0
2018-May-20 03:00N 52°42' E 005°18'0 0.0
2018-May-20 02:30N 52°42' E 005°18'0 0.0
2018-May-20 02:00N 52°42' E 005°18'0 0.0
2018-May-20 01:30N 52°42' E 005°18'0 0.0
2018-May-20 01:00N 52°42' E 005°18'0 0.0
2018-May-20 00:30N 52°42' E 005°18'0 0.0
2018-May-20 00:00N 52°42' E 005°18'0 0.0
2018-May-19 23:30N 52°42' E 005°18'0 0.0
2018-May-19 23:00N 52°42' E 005°18'0 0.0
2018-May-19 22:30N 52°42' E 005°18'0 0.0
2018-May-19 22:00N 52°42' E 005°18'0 0.0
2018-May-19 21:30N 52°42' E 005°18'0 0.0
2018-May-19 21:00N 52°42' E 005°18'0 0.0
2018-May-19 20:30N 52°42' E 005°18'0 0.0
2018-May-19 20:00N 52°42' E 005°18'0 0.0
2018-May-19 19:30N 52°42' E 005°18'0 0.0
2018-May-19 19:00N 52°42' E 005°18'0 0.0
2018-May-19 18:30N 52°42' E 005°18'0 0.0
2018-May-19 18:00N 52°42' E 005°18'0 0.0
2018-May-19 17:30N 52°42' E 005°18'0 0.0
2018-May-19 17:00N 52°42' E 005°18'0 0.0
2018-May-19 16:30N 52°42' E 005°18'0 0.0
2018-May-19 16:00N 52°42' E 005°18'0 0.0
2018-May-19 15:30N 52°42' E 005°18'0 0.0
2018-May-19 15:00N 52°42' E 005°18'0 0.0
2018-May-19 14:30N 52°42' E 005°18'0 0.0
2018-May-19 14:00N 52°42' E 005°18'0 0.0
2018-May-19 13:30N 52°42' E 005°18'0 0.0
2018-May-19 13:00N 52°42' E 005°18'0 0.0
2018-May-19 12:30N 52°42' E 005°18'0 0.0
2018-May-19 12:00N 52°42' E 005°18'0 0.0
2018-May-19 11:30N 52°42' E 005°18'0 0.0
2018-May-19 11:00N 52°42' E 005°18'0 0.0
2018-May-19 10:30N 52°42' E 005°18'0 0.0
2018-May-19 10:00N 52°42' E 005°18'0 0.0
2018-May-19 09:30N 52°42' E 005°18'0 0.0
2018-May-19 09:00N 52°42' E 005°18'0 0.0
2018-May-19 08:30N 52°42' E 005°18'0 0.0
2018-May-19 08:00N 52°42' E 005°18'0 0.0
2018-May-19 07:30N 52°42' E 005°18'0 0.0
2018-May-19 07:00N 52°42' E 005°18'0 0.0
2018-May-19 06:30N 52°42' E 005°18'0 0.0
2018-May-19 06:00N 52°42' E 005°18'0 0.0
2018-May-19 05:30N 52°42' E 005°18'0 0.0
2018-May-19 05:00N 52°42' E 005°18'0 0.0
2018-May-19 04:30N 52°42' E 005°18'0 0.0
2018-May-19 04:00N 52°42' E 005°18'0 0.0
2018-May-19 03:30N 52°42' E 005°18'0 0.0
2018-May-19 03:00N 52°42' E 005°18'0 0.0
2018-May-19 02:30N 52°42' E 005°18'0 0.0
2018-May-19 02:00N 52°42' E 005°18'0 0.0
2018-May-19 01:30N 52°42' E 005°18'0 0.0
2018-May-19 01:00N 52°42' E 005°18'0 0.0
2018-May-19 00:30N 52°42' E 005°18'0 0.0
2018-May-19 00:00N 52°42' E 005°18'0 0.0
2018-May-18 23:30N 52°42' E 005°18'0 0.0
2018-May-18 23:00N 52°42' E 005°18'0 0.0
2018-May-18 22:30N 52°42' E 005°18'0 0.0
2018-May-18 22:00N 52°42' E 005°18'0 0.0
2018-May-18 21:29N 52°42' E 005°18'0 0.0
2018-May-18 20:59N 52°42' E 005°18'0 0.0
2018-May-18 20:29N 52°42' E 005°18'0 0.0
2018-May-18 19:59N 52°42' E 005°18'0 0.0
2018-May-18 19:29N 52°42' E 005°18'0 0.0
2018-May-18 18:59N 52°42' E 005°18'0 0.0
2018-May-18 18:29N 52°42' E 005°18'0 0.0
2018-May-18 17:59N 52°42' E 005°18'0 0.0
2018-May-18 17:29N 52°42' E 005°18'0 0.0
2018-May-18 16:59N 52°42' E 005°18'0 0.0
2018-May-18 16:29N 52°42' E 005°18'0 0.0
2018-May-18 15:59N 52°42' E 005°18'0 0.0
2018-May-18 15:29N 52°42' E 005°18'0 0.0
2018-May-18 14:59N 52°42' E 005°18'0 0.0
2018-May-18 14:29N 52°42' E 005°18'0 0.0
2018-May-18 13:59N 52°42' E 005°18'0 0.0
2018-May-18 13:29N 52°42' E 005°18'0 0.0
2018-May-18 12:59N 52°42' E 005°18'0 0.0
2018-May-18 12:29N 52°42' E 005°18'0 0.0
2018-May-18 11:59N 52°42' E 005°18'0 0.0
2018-May-18 11:29N 52°42' E 005°18'0 0.0
2018-May-18 10:59N 52°42' E 005°18'0 0.0
2018-May-18 10:29N 52°42' E 005°18'0 0.0
2018-May-18 09:59N 52°42' E 005°18'0 0.0
2018-May-18 09:29N 52°42' E 005°18'0 0.0
2018-May-18 08:59N 52°42' E 005°18'0 0.0
2018-May-18 08:29N 52°42' E 005°18'0 0.0
2018-May-18 07:59N 52°42' E 005°18'0 0.0
2018-May-18 07:29N 52°42' E 005°18'0 0.0
2018-May-18 06:59N 52°42' E 005°18'0 0.0
2018-May-18 06:29N 52°42' E 005°18'0 0.0
2018-May-18 05:59N 52°42' E 005°18'0 0.0
2018-May-18 05:29N 52°42' E 005°18'0 0.0
2018-May-18 04:59N 52°42' E 005°18'0 0.0
2018-May-18 04:29N 52°42' E 005°18'0 0.0
2018-May-18 03:59N 52°42' E 005°18'0 0.0
2018-May-18 03:29N 52°42' E 005°18'0 0.0
2018-May-18 02:59N 52°42' E 005°18'0 0.0
2018-May-18 02:29N 52°42' E 005°18'0 0.0
2018-May-18 01:59N 52°42' E 005°18'0 0.0
2018-May-18 01:29N 52°42' E 005°18'0 0.0
2018-May-18 00:59N 52°42' E 005°18'0 0.0
2018-May-18 00:29N 52°42' E 005°18'0 0.0
2018-May-17 23:59N 52°42' E 005°18'0 0.0
2018-May-17 23:29N 52°42' E 005°18'0 0.0
2018-May-17 22:59N 52°42' E 005°18'0 0.0
2018-May-17 22:29N 52°42' E 005°18'0 0.0
2018-May-17 21:59N 52°42' E 005°18'0 0.0
2018-May-17 21:29N 52°42' E 005°18'0 0.0
2018-May-17 20:59N 52°42' E 005°18'0 0.0
2018-May-17 20:29N 52°42' E 005°18'0 0.0
2018-May-17 19:59N 52°42' E 005°18'0 0.0
2018-May-17 19:29N 52°42' E 005°18'0 0.0
2018-May-17 18:59N 52°42' E 005°18'0 0.0
2018-May-17 18:29N 52°42' E 005°18'0 0.0
2018-May-17 17:59N 52°42' E 005°18'0 0.0
2018-May-17 17:29N 52°42' E 005°18'0 0.0
2018-May-17 16:59N 52°42' E 005°18'0 0.0
2018-May-17 16:29N 52°42' E 005°18'0 0.0
2018-May-17 15:59N 52°42' E 005°18'0 0.0
2018-May-17 15:29N 52°42' E 005°18'0 0.0
2018-May-17 14:59N 52°42' E 005°18'0 0.0
2018-May-17 14:29N 52°42' E 005°18'0 0.0
2018-May-17 13:59N 52°42' E 005°18'0 0.0
2018-May-17 13:29N 52°42' E 005°18'0 0.0
2018-May-17 12:59N 52°42' E 005°18'0 0.0
2018-May-17 12:30N 52°42' E 005°18'2 3.1
2018-May-17 12:00N 52°43' E 005°19'2 4.3
2018-May-17 11:30N 52°45' E 005°21'2 3.0
2018-May-17 11:01N 52°46' E 005°20'4 7.8
2018-May-17 10:30N 52°46' E 005°14'2 4.2
2018-May-17 10:00N 52°46' E 005°17'4 7.6
2018-May-17 09:30N 52°47' E 005°23'1 2.7
2018-May-17 09:00N 52°45' E 005°24'4 7.3
2018-May-17 08:30N 52°43' E 005°19'1 2.6
2018-May-17 07:59N 52°42' E 005°18'0 0.0
2018-May-17 07:29N 52°42' E 005°18'0 0.0
2018-May-17 06:59N 52°42' E 005°18'0 0.0
2018-May-17 06:29N 52°42' E 005°18'0 0.0
2018-May-17 05:59N 52°42' E 005°18'0 0.0
2018-May-17 05:29N 52°42' E 005°18'0 0.0
2018-May-17 04:59N 52°42' E 005°18'0 0.0
2018-May-17 04:29N 52°42' E 005°18'0 0.0
2018-May-17 03:59N 52°42' E 005°18'0 0.0
2018-May-17 03:29N 52°42' E 005°18'0 0.0
2018-May-17 02:59N 52°42' E 005°18'0 0.0
2018-May-17 02:29N 52°42' E 005°18'0 0.0
2018-May-17 01:59N 52°42' E 005°18'0 0.0
2018-May-17 01:29N 52°42' E 005°18'0 0.0
2018-May-17 00:59N 52°42' E 005°18'0 0.0
2018-May-17 00:29N 52°42' E 005°18'0 0.0
2018-May-16 23:59N 52°42' E 005°18'0 0.0
2018-May-16 23:29N 52°42' E 005°18'0 0.0
2018-May-16 22:59N 52°42' E 005°18'0 0.0
2018-May-16 22:29N 52°42' E 005°18'0 0.0
2018-May-16 21:59N 52°42' E 005°18'0 0.0
2018-May-16 21:29N 52°42' E 005°18'0 0.0
2018-May-16 20:59N 52°42' E 005°18'0 0.0
2018-May-16 20:29N 52°42' E 005°18'0 0.0
2018-May-16 19:59N 52°42' E 005°18'0 0.0
2018-May-16 19:29N 52°42' E 005°18'0 0.0
2018-May-16 18:58N 52°42' E 005°18'0 0.0
2018-May-16 18:28N 52°42' E 005°18'0 0.0
2018-May-16 17:58N 52°42' E 005°18'0 0.0
2018-May-16 17:28N 52°42' E 005°18'0 0.0
2018-May-16 16:58N 52°42' E 005°18'0 0.0
2018-May-16 16:28N 52°42' E 005°18'0 0.0
2018-May-16 15:58N 52°42' E 005°18'0 0.0
2018-May-16 15:28N 52°42' E 005°18'0 0.0
2018-May-16 14:58N 52°42' E 005°18'0 0.0
2018-May-16 14:28N 52°42' E 005°18'0 0.0
2018-May-16 13:58N 52°42' E 005°18'0 0.0
2018-May-16 13:28N 52°42' E 005°18'0 0.0
2018-May-16 12:58N 52°42' E 005°18'0 0.0
2018-May-16 12:28N 52°42' E 005°18'0 0.0
2018-May-16 11:58N 52°42' E 005°18'0 0.0
2018-May-16 11:28N 52°42' E 005°18'0 0.0
2018-May-16 10:58N 52°42' E 005°18'0 0.0
2018-May-16 10:28N 52°42' E 005°18'0 0.0
2018-May-16 09:58N 52°42' E 005°18'0 0.0
2018-May-16 09:28N 52°42' E 005°18'0 0.0
2018-May-16 08:58N 52°42' E 005°18'0 0.0
2018-May-16 08:28N 52°42' E 005°18'0 0.0
2018-May-16 07:58N 52°42' E 005°18'0 0.0
2018-May-16 07:28N 52°42' E 005°18'0 0.0
2018-May-16 06:58N 52°42' E 005°18'0 0.0
2018-May-16 06:28N 52°42' E 005°18'0 0.0
2018-May-16 05:58N 52°42' E 005°18'0 0.0
2018-May-16 05:28N 52°42' E 005°18'0 0.0
2018-May-16 04:58N 52°42' E 005°18'0 0.0
2018-May-16 04:28N 52°42' E 005°18'0 0.0
2018-May-16 03:58N 52°42' E 005°18'0 0.0
2018-May-16 03:28N 52°42' E 005°18'0 0.0
2018-May-16 02:58N 52°42' E 005°18'0 0.0
2018-May-16 02:28N 52°42' E 005°18'0 0.0
2018-May-16 01:58N 52°42' E 005°18'0 0.0
2018-May-16 01:28N 52°42' E 005°18'0 0.0
2018-May-16 00:58N 52°42' E 005°18'0 0.0
2018-May-16 00:28N 52°42' E 005°18'0 0.0
2018-May-15 23:58N 52°42' E 005°18'0 0.0
2018-May-15 23:28N 52°42' E 005°18'0 0.0
2018-May-15 22:58N 52°42' E 005°18'0 0.0
2018-May-15 22:28N 52°42' E 005°18'0 0.0
2018-May-15 21:58N 52°42' E 005°18'0 0.0
2018-May-15 21:28N 52°42' E 005°18'0 0.0
2018-May-15 20:58N 52°42' E 005°18'0 0.0
2018-May-15 20:28N 52°42' E 005°18'0 0.0
2018-May-15 19:58N 52°42' E 005°18'0 0.0
2018-May-15 19:28N 52°42' E 005°18'0 0.0
2018-May-15 18:58N 52°42' E 005°18'0 0.0
2018-May-15 18:28N 52°42' E 005°18'0 0.0
2018-May-15 17:58N 52°42' E 005°18'0 0.0
2018-May-15 17:28N 52°42' E 005°18'0 0.0
2018-May-15 16:58N 52°42' E 005°18'0 0.0
2018-May-15 16:28N 52°42' E 005°18'0 0.0
2018-May-15 15:58N 52°42' E 005°18'0 0.0
2018-May-15 15:28N 52°42' E 005°18'0 0.0
2018-May-15 14:58N 52°42' E 005°18'0 0.0
2018-May-15 14:28N 52°42' E 005°18'1 2.4
2018-May-15 14:01N 52°43' E 005°19'2 4.9
2018-May-15 13:30N 52°45' E 005°18'2 4.8
2018-May-15 13:00N 52°47' E 005°16'2 4.3
2018-May-15 12:30N 52°49' E 005°14'2 4.5
2018-May-15 12:00N 52°51' E 005°13'2 4.4
2018-May-15 11:30N 52°53' E 005°10'2 4.5
2018-May-15 11:00N 52°51' E 005°13'3 6.4
2018-May-15 10:30N 52°50' E 005°18'2 4.3
2018-May-15 10:00N 52°48' E 005°15'2 3.6
2018-May-15 09:31N 52°48' E 005°18'2 4.2
2018-May-15 09:00N 52°46' E 005°20'2 4.4
2018-May-15 08:30N 52°44' E 005°20'2 3.4
2018-May-15 08:00N 52°42' E 005°19'1 1.5
2018-May-15 07:29N 52°42' E 005°18'0 0.0
2018-May-15 06:59N 52°42' E 005°18'0 0.0
2018-May-15 06:29N 52°42' E 005°18'0 0.0
2018-May-15 05:59N 52°42' E 005°18'0 0.0
2018-May-15 05:29N 52°42' E 005°18'0 0.0
2018-May-15 04:59N 52°42' E 005°18'0 0.0
2018-May-15 04:29N 52°42' E 005°18'0 0.0
2018-May-15 03:59N 52°42' E 005°18'0 0.0
2018-May-15 03:29N 52°42' E 005°18'0 0.0
2018-May-15 02:59N 52°42' E 005°18'0 0.0
2018-May-15 02:29N 52°42' E 005°18'0 0.0
2018-May-15 01:59N 52°42' E 005°18'0 0.0
2018-May-15 01:29N 52°42' E 005°18'0 0.0
2018-May-15 00:59N 52°42' E 005°18'0 0.0
2018-May-15 00:29N 52°42' E 005°18'0 0.0
2018-May-14 23:59N 52°42' E 005°18'0 0.0
2018-May-14 23:29N 52°42' E 005°18'0 0.0
2018-May-14 22:59N 52°42' E 005°18'0 0.0
2018-May-14 22:29N 52°42' E 005°18'0 0.0
2018-May-14 21:59N 52°42' E 005°18'0 0.0
2018-May-14 21:29N 52°42' E 005°18'0 0.0
2018-May-14 20:59N 52°42' E 005°18'0 0.0
2018-May-14 20:29N 52°42' E 005°18'0 0.0
2018-May-14 19:59N 52°42' E 005°18'0 0.0
2018-May-14 19:29N 52°42' E 005°18'0 0.0
2018-May-14 18:59N 52°42' E 005°18'0 0.0
2018-May-14 18:29N 52°42' E 005°18'0 0.0
2018-May-14 17:59N 52°42' E 005°18'0 0.0
2018-May-14 17:29N 52°42' E 005°18'0 0.0
2018-May-14 16:59N 52°42' E 005°18'0 0.0
2018-May-14 16:29N 52°42' E 005°18'0 0.0
2018-May-14 15:59N 52°42' E 005°18'0 0.0
2018-May-14 15:29N 52°42' E 005°18'0 0.0
2018-May-14 14:59N 52°42' E 005°18'0 0.0
2018-May-14 14:29N 52°42' E 005°18'0 0.0
2018-May-14 13:59N 52°42' E 005°18'2 3.2
2018-May-14 13:30N 52°43' E 005°19'1 2.2
2018-May-14 13:00N 52°44' E 005°19'2 4.4
2018-May-14 12:30N 52°46' E 005°18'2 4.5
2018-May-14 12:01N 52°48' E 005°16'3 6.1
2018-May-14 11:30N 52°51' E 005°13'2 4.6
2018-May-14 11:00N 52°50' E 005°09'4 7.1
2018-May-14 10:31N 52°48' E 005°15'3 6.1
2018-May-14 10:00N 52°47' E 005°19'3 5.8
2018-May-14 09:30N 52°46' E 005°23'1 2.9
2018-May-14 09:00N 52°45' E 005°22'2 4.1
2018-May-14 08:30N 52°44' E 005°19'1 2.4
2018-May-14 08:00N 52°42' E 005°19'1 1.7
2018-May-14 07:30N 52°42' E 005°18'0 0.0
2018-May-14 07:00N 52°42' E 005°18'0 0.0
2018-May-14 06:30N 52°42' E 005°18'0 0.0
2018-May-14 06:00N 52°42' E 005°18'0 0.0
2018-May-14 05:30N 52°42' E 005°18'0 0.0
2018-May-14 04:59N 52°42' E 005°18'0 0.0
2018-May-14 04:29N 52°42' E 005°18'0 0.0
2018-May-14 03:59N 52°42' E 005°18'0 0.0
2018-May-14 03:29N 52°42' E 005°18'0 0.0
2018-May-14 02:59N 52°42' E 005°18'0 0.0
2018-May-14 02:29N 52°42' E 005°18'0 0.0
2018-May-14 01:59N 52°42' E 005°18'0 0.0
2018-May-14 01:29N 52°42' E 005°18'0 0.0
2018-May-14 00:59N 52°42' E 005°18'0 0.0
2018-May-14 00:29N 52°42' E 005°18'0 0.0
2018-May-13 23:59N 52°42' E 005°18'0 0.0
2018-May-13 23:29N 52°42' E 005°18'0 0.0
2018-May-13 22:59N 52°42' E 005°18'0 0.0
2018-May-13 22:29N 52°42' E 005°18'0 0.0
2018-May-13 21:59N 52°42' E 005°18'0 0.0
2018-May-13 21:29N 52°42' E 005°18'0 0.0
2018-May-13 20:59N 52°42' E 005°18'0 0.0
2018-May-13 20:29N 52°42' E 005°18'0 0.0
2018-May-13 19:59N 52°42' E 005°18'0 0.0
2018-May-13 19:29N 52°42' E 005°18'0 0.0
2018-May-13 18:59N 52°42' E 005°18'0 0.0
2018-May-13 18:29N 52°42' E 005°18'0 0.0
2018-May-13 17:59N 52°42' E 005°18'0 0.0
2018-May-13 17:29N 52°42' E 005°18'0 0.0
2018-May-13 16:59N 52°42' E 005°18'0 0.0
2018-May-13 16:29N 52°42' E 005°18'0 0.0
2018-May-13 15:59N 52°42' E 005°18'0 0.0
2018-May-13 15:29N 52°42' E 005°18'0 0.0
2018-May-13 14:59N 52°42' E 005°18'0 0.0
2018-May-13 14:29N 52°42' E 005°18'0 0.0
2018-May-13 13:59N 52°42' E 005°18'0 0.0
2018-May-13 13:29N 52°42' E 005°18'0 0.0
2018-May-13 12:59N 52°42' E 005°18'0 0.0
2018-May-13 12:29N 52°42' E 005°18'0 0.0
2018-May-13 11:59N 52°42' E 005°18'0 0.0
2018-May-13 11:29N 52°42' E 005°18'  

Dump ship's entire track history